Decoded Metar for LEJR (JEREZ in SPAIN) (IATA:XRY) | Meteo·Mobile Aviation Weather
aviador You're here:

LEJR Decoded Metar

JEREZ in SPAIN
Report Time2019-07-19 18:30:00
UTC Time2019-07-19 18:27:39
Flight Rules vfr VFR
Wind230° at 09 kt
W.Decomp.*RWY 20: 7.6 kt HW 4.8 kt RCW
Visibility9999 m
Phenomena:N/A
Clouds:N/A
Expected CloudBase > 7,200 ft AGL from Temp-Dew spread
CeilingNone
Temp32°C (ISA +17)
Dew Point14°C (33% RH)
Heat Index31.2°C
AAT29.9°C
QNH1010 hPa
Density Alt2,375 ft
Elevation98 ft
Report Wrong Elevation
Raw Report
METAR LEJR 191830Z 23009KT CAVOK 32/14 Q1010=

Extra information for LEJR:More info

Metar Taf Metar & Taf Last 4 Metars F.Rules Stats Wind Profile Meteogram Temp Stats Airport Information Weather charts Add Link Nearby VenuesMetar ALERT Operation Metar Decoded Social comments